Glenshaw, PA

11:13 AM EST en Noviembre 22, 2014 (GMT -0500)
Butler County-Scholter | Change Station
CLOSE
Current Station
Aeropuerto
Location: Butler,
Altura: 1247 ft
Estaciones meteorológicas cercanas
Aviso en curso: Freezing Rain Advisory

Alt 1247 ft 40.78 °N, 79.95 °W | Updated 18 minutes ago

Nublado
Nublado
30 ° F
Sensación térmica 22 ° F
N
9
Viento Variable Viento desde Sur

Hoy
Alta -- | Baja -- ° F
--% Posibilidad de precipitaciones
Ayer
Alta -- | Baja -- ° F
Precip. -- pul
7:14 AM 4:57 PM
Luna nueva, 0% visible
Presión 30.27 pul
Visibilidad 7.0 Millas
Nubes Muy nublado 1500 ft
Nublado 2100 ft
Vientos helados 22 ° F
Punto de rocío 23 ° F
Humedad 75%
Precipitaciones 0.00 pul
Espesor de la nieve No disponible.
UV 1 de una escala de 12
Polen .10 de una escala de 12
Calidad del aire No disponible.
Flu Activity No disponible.
METAR KBTP 221555Z AUTO 19008KT 7SM BKN015 OVC021 M01/M05 A3027 RMK AO1

More Conditions Fewer Conditions

Presión 30.27 pul
Visibilidad 7.0 Millas
Nubes Muy nublado 1500 ft
Nublado 2100 ft
Vientos helados 22 ° F
Punto de rocío 23 ° F
Humedad 75%
Precipitaciones 0.00 pul
Espesor de la nieve No disponible.
UV 1 de una escala de 12
Polen .10 de una escala de 12
Calidad del aire No disponible.
Flu Activity No disponible.
METAR KBTP 221555Z AUTO 19008KT 7SM BKN015 OVC021 M01/M05 A3027 RMK AO1

More Conditions Fewer Conditions

10-Day Weather Forecast

Almanac

Astronomía

Nov. 22, 2014 Salida Puesta
Hora real
Crepúsculo civil
Crepúsculo náutico
Crepúsculo astronómico
Luna
Horas de luz
Horas de luz
Tomorrow will be .
, % of the Moon is Illuminated

Extremos de hoy

Máximos del estado Bajos del estado

Community

WunderPhotos

Upload Photos

1,772,842 ¡fotos cargadas!

WunderBlogs® & News

Nearby

Calidad del aire

  Calidad del aire Índice AQ Contaminante
Not available.

Grosos de nieve

Estación Profundido Altura

Actividad de terremotos

Ciudad Distance Mag. Tiempo y dato
Magnitud mínima muestra es 2,5.

Temperaturas de aguas costeras

Lugar Temperatura

Estaciones meteorológicas cercanas